sensor_id;sensor_type;location;lat;lon;timestamp;pressure;altitude;pressure_sealevel;temperature;humidity
32452;BME280;45528;52.102;5.242;2023-06-22T00:00:03;101587.0;;;24.42;56.55
32452;BME280;45528;52.102;5.242;2023-06-22T00:01:38;101588.0;;;24.3;57.2
32452;BME280;45528;52.102;5.242;2023-06-22T00:03:15;101585.0;;;24.23;57.28
32452;BME280;45528;52.102;5.242;2023-06-22T00:06:27;101588.0;;;24.24;57.23
32452;BME280;45528;52.102;5.242;2023-06-22T00:08:04;101591.0;;;24.16;57.6
32452;BME280;45528;52.102;5.242;2023-06-22T00:09:40;101593.0;;;23.95;58.29
32452;BME280;45528;52.102;5.242;2023-06-22T00:12:52;101593.0;;;23.87;58.63
32452;BME280;45528;52.102;5.242;2023-06-22T00:14:29;101591.0;;;23.88;58.68
32452;BME280;45528;52.102;5.242;2023-06-22T00:16:05;101593.0;;;23.91;58.48
32452;BME280;45528;52.102;5.242;2023-06-22T00:19:17;101593.0;;;23.8;58.83
32452;BME280;45528;52.102;5.242;2023-06-22T00:20:54;101590.0;;;23.82;58.84
32452;BME280;45528;52.102;5.242;2023-06-22T00:22:30;101583.0;;;23.85;58.65
32452;BME280;45528;52.102;5.242;2023-06-22T00:25:43;101580.0;;;23.85;58.57
32452;BME280;45528;52.102;5.242;2023-06-22T00:27:19;101582.0;;;23.76;58.46
32452;BME280;45528;52.102;5.242;2023-06-22T00:28:55;101576.0;;;24.05;57.58
32452;BME280;45528;52.102;5.242;2023-06-22T00:30:32;101575.0;;;24.03;57.4
32452;BME280;45528;52.102;5.242;2023-06-22T00:33:45;101573.0;;;23.84;58.02
32452;BME280;45528;52.102;5.242;2023-06-22T00:35:21;101572.0;;;23.84;57.94
32452;BME280;45528;52.102;5.242;2023-06-22T00:36:57;101569.0;;;23.75;57.96
32452;BME280;45528;52.102;5.242;2023-06-22T00:40:10;101565.0;;;23.95;57.32
32452;BME280;45528;52.102;5.242;2023-06-22T00:41:46;101569.0;;;23.94;57.34
32452;BME280;45528;52.102;5.242;2023-06-22T00:43:23;101570.0;;;23.86;57.53
32452;BME280;45528;52.102;5.242;2023-06-22T00:46:35;101569.0;;;23.71;57.86
32452;BME280;45528;52.102;5.242;2023-06-22T00:48:12;101563.0;;;23.77;57.73
32452;BME280;45528;52.102;5.242;2023-06-22T00:49:50;101566.0;;;23.75;57.87
32452;BME280;45528;52.102;5.242;2023-06-22T00:51:27;101564.0;;;23.68;58.27
32452;BME280;45528;52.102;5.242;2023-06-22T00:54:43;101559.0;;;23.66;58.18
32452;BME280;45528;52.102;5.242;2023-06-22T00:56:20;101560.0;;;23.57;58.65
32452;BME280;45528;52.102;5.242;2023-06-22T00:57:56;101561.0;;;23.43;59.18
32452;BME280;45528;52.102;5.242;2023-06-22T01:01:09;101557.0;;;23.33;59.55
32452;BME280;45528;52.102;5.242;2023-06-22T01:02:45;101552.0;;;23.36;59.39
32452;BME280;45528;52.102;5.242;2023-06-22T01:04:25;101556.0;;;23.38;59.12
32452;BME280;45528;52.102;5.242;2023-06-22T01:06:14;101555.0;;;23.22;59.57
32452;BME280;45528;52.102;5.242;2023-06-22T01:09:46;101560.0;;;23.44;58.83
32452;BME280;45528;52.102;5.242;2023-06-22T01:11:32;101553.0;;;23.38;58.89
32452;BME280;45528;52.102;5.242;2023-06-22T01:13:19;101546.0;;;23.24;59.06
32452;BME280;45528;52.102;5.242;2023-06-22T01:15:04;101546.0;;;23.23;59.29
32452;BME280;45528;52.102;5.242;2023-06-22T01:16:44;101548.0;;;23.32;58.78
32452;BME280;45528;52.102;5.242;2023-06-22T01:20:06;101549.0;;;23.25;58.95
32452;BME280;45528;52.102;5.242;2023-06-22T01:21:45;101552.0;;;23.15;59.18
32452;BME280;45528;52.102;5.242;2023-06-22T01:23:28;101559.0;;;23.04;59.68
32452;BME280;45528;52.102;5.242;2023-06-22T01:25:12;101559.0;;;22.99;59.97
32452;BME280;45528;52.102;5.242;2023-06-22T01:28:45;101558.0;;;22.93;60.47
32452;BME280;45528;52.102;5.242;2023-06-22T01:30:22;101556.0;;;22.86;61.11
32452;BME280;45528;52.102;5.242;2023-06-22T01:32:01;101549.0;;;22.72;61.1
32452;BME280;45528;52.102;5.242;2023-06-22T01:33:42;101551.0;;;23.11;59.98
32452;BME280;45528;52.102;5.242;2023-06-22T01:35:20;101558.0;;;23.09;60.03
32452;BME280;45528;52.102;5.242;2023-06-22T01:38:36;101553.0;;;23.13;59.94
32452;BME280;45528;52.102;5.242;2023-06-22T01:40:14;101545.0;;;23.11;59.89
32452;BME280;45528;52.102;5.242;2023-06-22T01:41:52;101545.0;;;23.13;59.88
32452;BME280;45528;52.102;5.242;2023-06-22T01:45:07;101549.0;;;23.04;59.98
32452;BME280;45528;52.102;5.242;2023-06-22T01:46:43;101550.0;;;23.06;59.77
32452;BME280;45528;52.102;5.242;2023-06-22T01:48:21;101549.0;;;23.07;59.6
32452;BME280;45528;52.102;5.242;2023-06-22T01:49:58;101548.0;;;22.94;60.17
32452;BME280;45528;52.102;5.242;2023-06-22T01:53:10;101544.0;;;22.95;60.1
32452;BME280;45528;52.102;5.242;2023-06-22T01:54:47;101548.0;;;22.85;60.36
32452;BME280;45528;52.102;5.242;2023-06-22T01:56:23;101543.0;;;22.8;60.55
32452;BME280;45528;52.102;5.242;2023-06-22T01:59:45;101543.0;;;22.8;60.53
32452;BME280;45528;52.102;5.242;2023-06-22T02:01:27;101544.0;;;22.79;60.64
32452;BME280;45528;52.102;5.242;2023-06-22T02:03:11;101548.0;;;22.89;60.33
32452;BME280;45528;52.102;5.242;2023-06-22T02:04:52;101549.0;;;22.92;59.93
32452;BME280;45528;52.102;5.242;2023-06-22T02:08:17;101549.0;;;22.83;60.28
32452;BME280;45528;52.102;5.242;2023-06-22T02:09:56;101547.0;;;22.76;60.45
32452;BME280;45528;52.102;5.242;2023-06-22T02:11:36;101543.0;;;22.7;60.94
32452;BME280;45528;52.102;5.242;2023-06-22T02:13:14;101535.0;;;22.75;60.84
32452;BME280;45528;52.102;5.242;2023-06-22T02:16:30;101534.0;;;22.81;60.81
32452;BME280;45528;52.102;5.242;2023-06-22T02:18:08;101536.0;;;22.94;60.36
32452;BME280;45528;52.102;5.242;2023-06-22T02:19:44;101532.0;;;22.9;60.69
32452;BME280;45528;52.102;5.242;2023-06-22T02:21:20;101531.0;;;22.87;60.61
32452;BME280;45528;52.102;5.242;2023-06-22T02:24:33;101527.0;;;22.87;60.64
32452;BME280;45528;52.102;5.242;2023-06-22T02:26:10;101526.0;;;22.77;61.0
32452;BME280;45528;52.102;5.242;2023-06-22T02:27:46;101525.0;;;22.72;61.1
32452;BME280;45528;52.102;5.242;2023-06-22T02:30:58;101535.0;;;22.71;60.8
32452;BME280;45528;52.102;5.242;2023-06-22T02:32:35;101535.0;;;22.76;60.33
32452;BME280;45528;52.102;5.242;2023-06-22T02:34:11;101536.0;;;22.76;60.18
32452;BME280;45528;52.102;5.242;2023-06-22T02:37:24;101534.0;;;22.84;59.75
32452;BME280;45528;52.102;5.242;2023-06-22T02:39:00;101530.0;;;22.86;59.52
32452;BME280;45528;52.102;5.242;2023-06-22T02:40:36;101530.0;;;22.69;60.15
32452;BME280;45528;52.102;5.242;2023-06-22T02:43:48;101531.0;;;22.53;60.67
32452;BME280;45528;52.102;5.242;2023-06-22T02:45:25;101535.0;;;22.5;60.86
32452;BME280;45528;52.102;5.242;2023-06-22T02:47:01;101528.0;;;22.5;60.84
32452;BME280;45528;52.102;5.242;2023-06-22T02:48:39;101528.0;;;22.57;60.79
32452;BME280;45528;52.102;5.242;2023-06-22T02:51:51;101525.0;;;22.51;60.94
32452;BME280;45528;52.102;5.242;2023-06-22T02:53:28;101527.0;;;22.45;61.1
32452;BME280;45528;52.102;5.242;2023-06-22T02:55:05;101530.0;;;22.48;61.16
32452;BME280;45528;52.102;5.242;2023-06-22T02:58:18;101528.0;;;22.48;61.18
32452;BME280;45528;52.102;5.242;2023-06-22T02:59:54;101530.0;;;22.5;61.16
32452;BME280;45528;52.102;5.242;2023-06-22T03:01:30;101523.0;;;22.5;61.07
32452;BME280;45528;52.102;5.242;2023-06-22T03:04:43;101528.0;;;22.61;60.83
32452;BME280;45528;52.102;5.242;2023-06-22T03:06:20;101524.0;;;22.55;60.82
32452;BME280;45528;52.102;5.242;2023-06-22T03:07:56;101528.0;;;22.59;60.71
32452;BME280;45528;52.102;5.242;2023-06-22T03:09:32;101524.0;;;22.52;60.69
32452;BME280;45528;52.102;5.242;2023-06-22T03:12:46;101524.0;;;22.42;61.09
32452;BME280;45528;52.102;5.242;2023-06-22T03:14:23;101525.0;;;22.4;60.86
32452;BME280;45528;52.102;5.242;2023-06-22T03:15:59;101525.0;;;22.49;60.6
32452;BME280;45528;52.102;5.242;2023-06-22T03:19:13;101521.0;;;22.52;60.2
32452;BME280;45528;52.102;5.242;2023-06-22T03:20:49;101522.0;;;22.44;60.54
32452;BME280;45528;52.102;5.242;2023-06-22T03:22:25;101531.0;;;22.38;60.83
32452;BME280;45528;52.102;5.242;2023-06-22T03:25:37;101526.0;;;22.4;60.74
32452;BME280;45528;52.102;5.242;2023-06-22T03:27:13;101523.0;;;22.52;60.17
32452;BME280;45528;52.102;5.242;2023-06-22T03:28:49;101512.0;;;22.6;59.82
32452;BME280;45528;52.102;5.242;2023-06-22T03:30:26;101511.0;;;22.6;59.67
32452;BME280;45528;52.102;5.242;2023-06-22T03:33:38;101505.0;;;22.33;60.84
32452;BME280;45528;52.102;5.242;2023-06-22T03:35:14;101506.0;;;22.46;60.46
32452;BME280;45528;52.102;5.242;2023-06-22T03:36:50;101501.0;;;22.4;60.26
32452;BME280;45528;52.102;5.242;2023-06-22T03:40:03;101508.0;;;22.38;60.22
32452;BME280;45528;52.102;5.242;2023-06-22T03:41:40;101505.0;;;22.25;61.09
32452;BME280;45528;52.102;5.242;2023-06-22T03:43:16;101506.0;;;22.14;61.79
32452;BME280;45528;52.102;5.242;2023-06-22T03:46:28;101505.0;;;22.31;61.2
32452;BME280;45528;52.102;5.242;2023-06-22T03:48:05;101502.0;;;22.29;60.98
32452;BME280;45528;52.102;5.242;2023-06-22T03:49:41;101502.0;;;22.27;61.2
32452;BME280;45528;52.102;5.242;2023-06-22T03:51:17;101502.0;;;22.26;61.13
32452;BME280;45528;52.102;5.242;2023-06-22T03:54:29;101497.0;;;22.25;61.36
32452;BME280;45528;52.102;5.242;2023-06-22T03:56:06;101496.0;;;22.3;61.34
32452;BME280;45528;52.102;5.242;2023-06-22T03:57:43;101493.0;;;22.31;61.37
32452;BME280;45528;52.102;5.242;2023-06-22T04:00:55;101498.0;;;22.34;61.44
32452;BME280;45528;52.102;5.242;2023-06-22T04:02:31;101495.0;;;22.34;61.48
32452;BME280;45528;52.102;5.242;2023-06-22T04:04:07;101492.0;;;22.35;61.38
32452;BME280;45528;52.102;5.242;2023-06-22T04:07:20;101495.0;;;22.42;61.17
32452;BME280;45528;52.102;5.242;2023-06-22T04:08:57;101491.0;;;22.4;61.58
32452;BME280;45528;52.102;5.242;2023-06-22T04:10:33;101493.0;;;22.37;61.61
32452;BME280;45528;52.102;5.242;2023-06-22T04:13:45;101495.0;;;22.4;61.66
32452;BME280;45528;52.102;5.242;2023-06-22T04:15:21;101490.0;;;22.36;62.05
32452;BME280;45528;52.102;5.242;2023-06-22T04:16:58;101488.0;;;22.31;62.29
32452;BME280;45528;52.102;5.242;2023-06-22T04:18:34;101484.0;;;22.38;61.79
32452;BME280;45528;52.102;5.242;2023-06-22T04:21:46;101483.0;;;22.31;62.15
32452;BME280;45528;52.102;5.242;2023-06-22T04:23:22;101481.0;;;22.33;62.95
32452;BME280;45528;52.102;5.242;2023-06-22T04:24:58;101477.0;;;22.4;62.6
32452;BME280;45528;52.102;5.242;2023-06-22T04:28:11;101481.0;;;22.42;62.56
32452;BME280;45528;52.102;5.242;2023-06-22T04:29:47;101481.0;;;22.42;63.0
32452;BME280;45528;52.102;5.242;2023-06-22T04:31:23;101483.0;;;22.49;62.85
32452;BME280;45528;52.102;5.242;2023-06-22T04:34:35;101483.0;;;22.55;62.5
32452;BME280;45528;52.102;5.242;2023-06-22T04:36:12;101480.0;;;22.61;62.71
32452;BME280;45528;52.102;5.242;2023-06-22T04:37:48;101483.0;;;22.65;62.65
32452;BME280;45528;52.102;5.242;2023-06-22T04:41:00;101483.0;;;22.67;62.73
32452;BME280;45528;52.102;5.242;2023-06-22T04:42:38;101483.0;;;22.73;62.85
32452;BME280;45528;52.102;5.242;2023-06-22T04:44:16;101483.0;;;22.83;62.54
32452;BME280;45528;52.102;5.242;2023-06-22T04:45:54;101485.0;;;22.87;62.51
32452;BME280;45528;52.102;5.242;2023-06-22T04:49:06;101484.0;;;22.97;62.41
32452;BME280;45528;52.102;5.242;2023-06-22T04:50:43;101486.0;;;23.07;62.12
32452;BME280;45528;52.102;5.242;2023-06-22T04:52:19;101485.0;;;23.18;61.88
32452;BME280;45528;52.102;5.242;2023-06-22T04:55:32;101488.0;;;23.3;61.58
32452;BME280;45528;52.102;5.242;2023-06-22T04:57:08;101488.0;;;23.29;61.82
32452;BME280;45528;52.102;5.242;2023-06-22T04:58:44;101491.0;;;23.41;61.62
32452;BME280;45528;52.102;5.242;2023-06-22T05:00:20;101498.0;;;23.41;61.86
32452;BME280;45528;52.102;5.242;2023-06-22T05:03:34;101500.0;;;23.57;61.31
32452;BME280;45528;52.102;5.242;2023-06-22T05:05:10;101497.0;;;23.56;61.58
32452;BME280;45528;52.102;5.242;2023-06-22T05:06:47;101496.0;;;23.58;61.51
32452;BME280;45528;52.102;5.242;2023-06-22T05:09:59;101493.0;;;23.63;61.54
32452;BME280;45528;52.102;5.242;2023-06-22T05:11:35;101493.0;;;23.69;60.88
32452;BME280;45528;52.102;5.242;2023-06-22T05:13:12;101491.0;;;23.74;61.11
32452;BME280;45528;52.102;5.242;2023-06-22T05:16:24;101490.0;;;23.73;61.2
32452;BME280;45528;52.102;5.242;2023-06-22T05:18:00;101489.0;;;23.78;60.88
32452;BME280;45528;52.102;5.242;2023-06-22T05:19:36;101491.0;;;23.82;61.03
32452;BME280;45528;52.102;5.242;2023-06-22T05:22:48;101494.0;;;23.87;61.19
32452;BME280;45528;52.102;5.242;2023-06-22T05:24:25;101494.0;;;23.99;60.77
32452;BME280;45528;52.102;5.242;2023-06-22T05:26:01;101495.0;;;24.08;60.52
32452;BME280;45528;52.102;5.242;2023-06-22T05:27:37;101494.0;;;24.13;60.28
32452;BME280;45528;52.102;5.242;2023-06-22T05:30:49;101497.0;;;24.09;59.85
32452;BME280;45528;52.102;5.242;2023-06-22T05:32:25;101499.0;;;24.24;60.27
32452;BME280;45528;52.102;5.242;2023-06-22T05:34:02;101501.0;;;24.24;59.89
32452;BME280;45528;52.102;5.242;2023-06-22T05:37:14;101505.0;;;24.32;60.21
32452;BME280;45528;52.102;5.242;2023-06-22T05:38:51;101499.0;;;24.27;60.46
32452;BME280;45528;52.102;5.242;2023-06-22T05:40:27;101498.0;;;24.4;59.83
32452;BME280;45528;52.102;5.242;2023-06-22T05:43:40;101501.0;;;24.37;60.19
32452;BME280;45528;52.102;5.242;2023-06-22T05:45:17;101505.0;;;24.36;60.63
32452;BME280;45528;52.102;5.242;2023-06-22T05:46:53;101505.0;;;24.31;61.24
32452;BME280;45528;52.102;5.242;2023-06-22T05:48:29;101509.0;;;24.42;61.24
32452;BME280;45528;52.102;5.242;2023-06-22T05:51:44;101512.0;;;24.54;60.81
32452;BME280;45528;52.102;5.242;2023-06-22T05:53:20;101508.0;;;24.58;60.59
32452;BME280;45528;52.102;5.242;2023-06-22T05:54:56;101505.0;;;24.57;60.7
32452;BME280;45528;52.102;5.242;2023-06-22T05:58:08;101511.0;;;24.69;60.49
32452;BME280;45528;52.102;5.242;2023-06-22T05:59:44;101514.0;;;24.83;60.29
32452;BME280;45528;52.102;5.242;2023-06-22T06:01:20;101514.0;;;24.82;59.91
32452;BME280;45528;52.102;5.242;2023-06-22T06:04:33;101514.0;;;25.0;59.67
32452;BME280;45528;52.102;5.242;2023-06-22T06:06:09;101513.0;;;25.03;58.84
32452;BME280;45528;52.102;5.242;2023-06-22T06:07:45;101505.0;;;25.16;59.58
32452;BME280;45528;52.102;5.242;2023-06-22T06:09:22;101507.0;;;25.31;58.5
32452;BME280;45528;52.102;5.242;2023-06-22T06:12:35;101507.0;;;25.65;58.22
32452;BME280;45528;52.102;5.242;2023-06-22T06:14:11;101505.0;;;25.61;58.35
32452;BME280;45528;52.102;5.242;2023-06-22T06:15:47;101505.0;;;25.69;57.64
32452;BME280;45528;52.102;5.242;2023-06-22T06:18:59;101502.0;;;25.79;57.64
32452;BME280;45528;52.102;5.242;2023-06-22T06:20:35;101500.0;;;25.82;57.5
32452;BME280;45528;52.102;5.242;2023-06-22T06:22:11;101496.0;;;25.87;56.71
32452;BME280;45528;52.102;5.242;2023-06-22T06:25:24;101496.0;;;25.86;57.56
32452;BME280;45528;52.102;5.242;2023-06-22T06:27:00;101501.0;;;26.11;56.1
32452;BME280;45528;52.102;5.242;2023-06-22T06:28:36;101490.0;;;26.06;57.32
32452;BME280;45528;52.102;5.242;2023-06-22T06:31:51;101494.0;;;26.27;57.4
32452;BME280;45528;52.102;5.242;2023-06-22T06:33:27;101492.0;;;26.41;56.1
32452;BME280;45528;52.102;5.242;2023-06-22T06:35:04;101486.0;;;26.44;56.47
32452;BME280;45528;52.102;5.242;2023-06-22T06:36:40;101483.0;;;26.59;55.48
32452;BME280;45528;52.102;5.242;2023-06-22T06:39:52;101484.0;;;26.71;55.68
32452;BME280;45528;52.102;5.242;2023-06-22T06:41:29;101488.0;;;26.72;54.94
32452;BME280;45528;52.102;5.242;2023-06-22T06:43:05;101480.0;;;26.54;55.67
32452;BME280;45528;52.102;5.242;2023-06-22T06:46:17;101481.0;;;26.65;55.59
32452;BME280;45528;52.102;5.242;2023-06-22T06:47:54;101474.0;;;26.86;55.55
32452;BME280;45528;52.102;5.242;2023-06-22T06:49:30;101466.0;;;26.79;55.29
32452;BME280;45528;52.102;5.242;2023-06-22T06:52:42;101466.0;;;26.92;55.02
32452;BME280;45528;52.102;5.242;2023-06-22T06:54:18;101473.0;;;27.1;55.03
32452;BME280;45528;52.102;5.242;2023-06-22T06:55:54;101474.0;;;27.42;53.81
32452;BME280;45528;52.102;5.242;2023-06-22T06:57:30;101474.0;;;27.42;53.88
32452;BME280;45528;52.102;5.242;2023-06-22T07:00:42;101476.0;;;27.4;54.21
32452;BME280;45528;52.102;5.242;2023-06-22T07:02:19;101475.0;;;27.59;52.61
32452;BME280;45528;52.102;5.242;2023-06-22T07:03:55;101472.0;;;27.54;52.69
32452;BME280;45528;52.102;5.242;2023-06-22T07:07:07;101467.0;;;27.52;52.92
32452;BME280;45528;52.102;5.242;2023-06-22T07:08:43;101465.0;;;27.64;53.2
32452;BME280;45528;52.102;5.242;2023-06-22T07:10:20;101468.0;;;27.99;51.92
32452;BME280;45528;52.102;5.242;2023-06-22T07:13:32;101466.0;;;27.96;52.47
32452;BME280;45528;52.102;5.242;2023-06-22T07:15:09;101467.0;;;28.1;52.21
32452;BME280;45528;52.102;5.242;2023-06-22T07:16:45;101464.0;;;28.17;51.44
32452;BME280;45528;52.102;5.242;2023-06-22T07:19:57;101470.0;;;28.1;51.7
32452;BME280;45528;52.102;5.242;2023-06-22T07:21:34;101469.0;;;28.14;51.34
32452;BME280;45528;52.102;5.242;2023-06-22T07:23:10;101469.0;;;28.16;50.98
32452;BME280;45528;52.102;5.242;2023-06-22T07:24:46;101472.0;;;28.01;51.11
32452;BME280;45528;52.102;5.242;2023-06-22T07:28:00;101474.0;;;28.17;50.32
32452;BME280;45528;52.102;5.242;2023-06-22T07:29:38;101474.0;;;28.27;49.56
32452;BME280;45528;52.102;5.242;2023-06-22T07:31:14;101473.0;;;28.57;49.17
32452;BME280;45528;52.102;5.242;2023-06-22T07:34:26;101470.0;;;28.46;48.83
32452;BME280;45528;52.102;5.242;2023-06-22T07:36:03;101472.0;;;28.59;48.72
32452;BME280;45528;52.102;5.242;2023-06-22T07:37:39;101467.0;;;28.72;48.62
32452;BME280;45528;52.102;5.242;2023-06-22T07:40:52;101468.0;;;28.83;48.46
32452;BME280;45528;52.102;5.242;2023-06-22T07:42:28;101470.0;;;28.81;47.49
32452;BME280;45528;52.102;5.242;2023-06-22T07:44:04;101461.0;;;28.62;47.8
32452;BME280;45528;52.102;5.242;2023-06-22T07:45:40;101461.0;;;28.7;47.54
32452;BME280;45528;52.102;5.242;2023-06-22T07:48:52;101456.0;;;28.82;47.19
32452;BME280;45528;52.102;5.242;2023-06-22T07:50:29;101455.0;;;28.9;47.23
32452;BME280;45528;52.102;5.242;2023-06-22T07:52:05;101456.0;;;29.05;47.46
32452;BME280;45528;52.102;5.242;2023-06-22T07:55:19;101455.0;;;29.24;46.7
32452;BME280;45528;52.102;5.242;2023-06-22T07:56:55;101452.0;;;29.41;46.74
32452;BME280;45528;52.102;5.242;2023-06-22T07:58:31;101455.0;;;29.53;46.54
32452;BME280;45528;52.102;5.242;2023-06-22T08:01:46;101447.0;;;29.39;45.96
32452;BME280;45528;52.102;5.242;2023-06-22T08:03:22;101450.0;;;29.33;45.43
32452;BME280;45528;52.102;5.242;2023-06-22T08:04:58;101444.0;;;29.37;45.82
32452;BME280;45528;52.102;5.242;2023-06-22T08:06:34;101443.0;;;29.74;45.51
32452;BME280;45528;52.102;5.242;2023-06-22T08:09:47;101442.0;;;29.63;45.22
32452;BME280;45528;52.102;5.242;2023-06-22T08:11:24;101436.0;;;29.47;44.86
32452;BME280;45528;52.102;5.242;2023-06-22T08:13:01;101433.0;;;29.19;45.01
32452;BME280;45528;52.102;5.242;2023-06-22T08:16:14;101433.0;;;29.5;44.44
32452;BME280;45528;52.102;5.242;2023-06-22T08:17:50;101427.0;;;29.66;44.23
32452;BME280;45528;52.102;5.242;2023-06-22T08:19:28;101419.0;;;29.74;43.91
32452;BME280;45528;52.102;5.242;2023-06-22T08:22:41;101419.0;;;29.79;44.23
32452;BME280;45528;52.102;5.242;2023-06-22T08:24:17;101412.0;;;29.87;44.72
32452;BME280;45528;52.102;5.242;2023-06-22T08:25:53;101403.0;;;29.7;43.92
32452;BME280;45528;52.102;5.242;2023-06-22T08:27:29;101409.0;;;29.6;44.54
32452;BME280;45528;52.102;5.242;2023-06-22T08:30:42;101410.0;;;29.68;43.92
32452;BME280;45528;52.102;5.242;2023-06-22T08:32:18;101408.0;;;29.78;43.57
32452;BME280;45528;52.102;5.242;2023-06-22T08:33:54;101403.0;;;29.7;42.03
32452;BME280;45528;52.102;5.242;2023-06-22T08:37:06;101405.0;;;29.94;42.71
32452;BME280;45528;52.102;5.242;2023-06-22T08:38:42;101405.0;;;29.9;42.12
32452;BME280;45528;52.102;5.242;2023-06-22T08:40:19;101406.0;;;30.06;42.33
32452;BME280;45528;52.102;5.242;2023-06-22T08:43:32;101400.0;;;30.28;42.07
32452;BME280;45528;52.102;5.242;2023-06-22T08:45:09;101397.0;;;30.5;41.47
32452;BME280;45528;52.102;5.242;2023-06-22T08:46:45;101389.0;;;30.27;41.78
32452;BME280;45528;52.102;5.242;2023-06-22T08:49:57;101394.0;;;30.15;40.68
32452;BME280;45528;52.102;5.242;2023-06-22T08:51:34;101393.0;;;30.03;41.53
32452;BME280;45528;52.102;5.242;2023-06-22T08:53:10;101393.0;;;30.11;41.16
32452;BME280;45528;52.102;5.242;2023-06-22T08:54:46;101392.0;;;30.27;40.43
32452;BME280;45528;52.102;5.242;2023-06-22T08:57:58;101391.0;;;30.3;41.09
32452;BME280;45528;52.102;5.242;2023-06-22T08:59:34;101388.0;;;30.1;40.62
32452;BME280;45528;52.102;5.242;2023-06-22T09:01:11;101384.0;;;30.08;40.85
32452;BME280;45528;52.102;5.242;2023-06-22T09:04:24;101380.0;;;30.06;40.71
32452;BME280;45528;52.102;5.242;2023-06-22T09:06:00;101383.0;;;30.11;41.04
32452;BME280;45528;52.102;5.242;2023-06-22T09:07:36;101384.0;;;30.11;40.21
32452;BME280;45528;52.102;5.242;2023-06-22T09:10:50;101385.0;;;30.29;40.31
32452;BME280;45528;52.102;5.242;2023-06-22T09:12:26;101388.0;;;30.33;40.19
32452;BME280;45528;52.102;5.242;2023-06-22T09:14:02;101383.0;;;30.38;40.56
32452;BME280;45528;52.102;5.242;2023-06-22T09:15:38;101382.0;;;30.5;40.42
32452;BME280;45528;52.102;5.242;2023-06-22T09:18:50;101383.0;;;30.52;39.6
32452;BME280;45528;52.102;5.242;2023-06-22T09:20:27;101381.0;;;30.71;40.53
32452;BME280;45528;52.102;5.242;2023-06-22T09:22:03;101386.0;;;30.48;38.79
32452;BME280;45528;52.102;5.242;2023-06-22T09:25:15;101384.0;;;30.55;39.24
32452;BME280;45528;52.102;5.242;2023-06-22T09:26:51;101386.0;;;30.53;39.31
32452;BME280;45528;52.102;5.242;2023-06-22T09:28:27;101386.0;;;30.47;38.17
32452;BME280;45528;52.102;5.242;2023-06-22T09:31:40;101386.0;;;30.52;38.31
32452;BME280;45528;52.102;5.242;2023-06-22T09:33:17;101384.0;;;30.45;39.12
32452;BME280;45528;52.102;5.242;2023-06-22T09:34:53;101387.0;;;30.52;39.96
32452;BME280;45528;52.102;5.242;2023-06-22T09:38:05;101386.0;;;30.27;39.01
32452;BME280;45528;52.102;5.242;2023-06-22T09:39:41;101386.0;;;30.34;38.37
32452;BME280;45528;52.102;5.242;2023-06-22T09:41:17;101384.0;;;30.46;37.74
32452;BME280;45528;52.102;5.242;2023-06-22T09:42:54;101385.0;;;30.2;37.68
32452;BME280;45528;52.102;5.242;2023-06-22T09:46:06;101380.0;;;30.23;38.17
32452;BME280;45528;52.102;5.242;2023-06-22T09:47:42;101384.0;;;30.62;37.28
32452;BME280;45528;52.102;5.242;2023-06-22T09:49:18;101378.0;;;30.55;37.99
32452;BME280;45528;52.102;5.242;2023-06-22T09:52:30;101374.0;;;30.8;38.42
32452;BME280;45528;52.102;5.242;2023-06-22T09:54:07;101372.0;;;30.79;38.93
32452;BME280;45528;52.102;5.242;2023-06-22T09:55:43;101369.0;;;30.77;39.97
32452;BME280;45528;52.102;5.242;2023-06-22T09:58:55;101374.0;;;30.89;40.15
32452;BME280;45528;52.102;5.242;2023-06-22T10:00:31;101370.0;;;30.69;40.21
32452;BME280;45528;52.102;5.242;2023-06-22T10:02:08;101365.0;;;30.65;40.06
32452;BME280;45528;52.102;5.242;2023-06-22T10:03:45;101367.0;;;30.66;40.12
32452;BME280;45528;52.102;5.242;2023-06-22T10:06:57;101370.0;;;30.59;40.85
32452;BME280;45528;52.102;5.242;2023-06-22T10:08:33;101367.0;;;30.56;40.78
32452;BME280;45528;52.102;5.242;2023-06-22T10:10:09;101363.0;;;30.68;40.78
32452;BME280;45528;52.102;5.242;2023-06-22T10:13:22;101369.0;;;30.54;41.46
32452;BME280;45528;52.102;5.242;2023-06-22T10:14:59;101366.0;;;30.62;41.04
32452;BME280;45528;52.102;5.242;2023-06-22T10:16:36;101370.0;;;30.38;40.81
32452;BME280;45528;52.102;5.242;2023-06-22T10:19:48;101366.0;;;30.22;41.18
32452;BME280;45528;52.102;5.242;2023-06-22T10:21:24;101370.0;;;30.05;41.74
32452;BME280;45528;52.102;5.242;2023-06-22T10:23:00;101370.0;;;30.25;41.51
32452;BME280;45528;52.102;5.242;2023-06-22T10:26:13;101368.0;;;30.34;42.56
32452;BME280;45528;52.102;5.242;2023-06-22T10:27:49;101365.0;;;30.39;42.76
32452;BME280;45528;52.102;5.242;2023-06-22T10:29:25;101363.0;;;30.28;42.25
32452;BME280;45528;52.102;5.242;2023-06-22T10:31:01;101369.0;;;30.5;42.43
32452;BME280;45528;52.102;5.242;2023-06-22T10:34:14;101369.0;;;30.28;42.77
32452;BME280;45528;52.102;5.242;2023-06-22T10:35:51;101369.0;;;30.42;43.07
32452;BME280;45528;52.102;5.242;2023-06-22T10:37:27;101369.0;;;30.44;43.41
32452;BME280;45528;52.102;5.242;2023-06-22T10:40:39;101369.0;;;30.37;43.79
32452;BME280;45528;52.102;5.242;2023-06-22T10:42:15;101374.0;;;30.31;43.97
32452;BME280;45528;52.102;5.242;2023-06-22T10:43:51;101376.0;;;30.4;43.66
32452;BME280;45528;52.102;5.242;2023-06-22T10:47:04;101374.0;;;30.39;43.68
32452;BME280;45528;52.102;5.242;2023-06-22T10:48:41;101375.0;;;30.26;44.03
32452;BME280;45528;52.102;5.242;2023-06-22T10:50:17;101369.0;;;30.2;44.49
32452;BME280;45528;52.102;5.242;2023-06-22T10:51:54;101370.0;;;30.27;44.87
32452;BME280;45528;52.102;5.242;2023-06-22T10:55:08;101371.0;;;30.4;44.03
32452;BME280;45528;52.102;5.242;2023-06-22T10:56:44;101372.0;;;30.41;44.14
32452;BME280;45528;52.102;5.242;2023-06-22T10:58:21;101375.0;;;30.3;44.47
32452;BME280;45528;52.102;5.242;2023-06-22T11:01:33;101374.0;;;30.38;44.92
32452;BME280;45528;52.102;5.242;2023-06-22T11:03:09;101374.0;;;30.27;44.22
32452;BME280;45528;52.102;5.242;2023-06-22T11:04:45;101376.0;;;30.32;45.08